Time;durP1;ratioP1;P1;durP2;ratioP2;P2;SDS_P1;SDS_P2;PMS_P1;PMS_P2;Temp;Humidity;BMP_temperature;BMP_pressure;BME280_temperature;BME280_humidity;BME280_pressure;Samples;Min_cycle;Max_cycle;Signal;HPM_P1;HPM_P2
2021/09/27 00:01:07;;;;;;;27.30;18.63;;;14.90;99.90;;;;;;5036223;28;20021;-55
2021/09/27 00:03:32;;;;;;;29.02;18.55;;;14.80;99.90;;;;;;5039762;28;20029;-54
2021/09/27 00:05:59;;;;;;;27.65;17.27;;;14.90;99.90;;;;;;5040307;28;20104;-58
2021/09/27 00:08:25;;;;;;;25.40;16.92;;;14.80;99.90;;;;;;5033733;28;20094;-56
2021/09/27 00:11:07;;;;;;;33.25;18.23;;;14.90;99.90;;;;;;5040078;28;20029;-58
2021/09/27 00:13:36;;;;;;;26.55;16.25;;;14.80;99.90;;;;;;5039293;28;20381;-53
2021/09/27 00:16:02;;;;;;;28.42;17.27;;;14.80;99.90;;;;;;5037781;28;20025;-56
2021/09/27 00:18:28;;;;;;;26.90;17.40;;;14.80;99.90;;;;;;5043410;28;20079;-58
2021/09/27 00:20:59;;;;;;;30.60;18.33;;;14.80;99.90;;;;;;5046482;28;20032;-55
2021/09/27 00:23:27;;;;;;;27.42;17.98;;;14.70;99.90;;;;;;5040925;28;20021;-56
2021/09/27 00:25:53;;;;;;;26.83;17.92;;;14.70;99.90;;;;;;5037220;28;20492;-55
2021/09/27 00:28:19;;;;;;;30.73;18.65;;;14.70;99.90;;;;;;5039872;28;20032;-57
2021/09/27 00:30:47;;;;;;;29.13;18.83;;;14.70;99.90;;;;;;5035105;28;20052;-52
2021/09/27 00:33:13;;;;;;;30.00;18.45;;;14.70;99.90;;;;;;5037860;28;20545;-53
2021/09/27 00:35:39;;;;;;;27.88;18.98;;;14.70;99.90;;;;;;5038156;28;20033;-54
2021/09/27 00:38:06;;;;;;;32.88;19.60;;;14.70;99.90;;;;;;5041182;28;20036;-55
2021/09/27 00:40:36;;;;;;;28.85;17.52;;;14.70;99.90;;;;;;5038177;28;20400;-53
2021/09/27 00:43:02;;;;;;;26.85;18.13;;;14.70;99.90;;;;;;5037971;28;20041;-55
2021/09/27 00:45:36;;;;;;;26.65;17.83;;;14.80;99.90;;;;;;5048578;28;20017;-56
2021/09/27 00:48:02;;;;;;;27.08;17.67;;;14.80;99.90;;;;;;5045624;28;20043;-59
2021/09/27 00:50:32;;;;;;;32.08;17.75;;;14.90;99.90;;;;;;5041738;28;20408;-58
2021/09/27 00:53:01;;;;;;;29.65;17.85;;;14.90;99.90;;;;;;5032885;28;20084;-57
2021/09/27 00:55:28;;;;;;;26.17;16.70;;;14.90;99.90;;;;;;5040078;28;20036;-57
2021/09/27 00:57:54;;;;;;;29.05;17.52;;;14.90;99.90;;;;;;5039753;28;20040;-58
2021/09/27 01:00:23;;;;;;;26.63;17.58;;;14.90;99.90;;;;;;5043358;28;20468;-55
2021/09/27 01:02:48;;;;;;;31.70;17.48;;;14.90;99.90;;;;;;5041104;28;20542;-53
2021/09/27 01:05:16;;;;;;;31.27;17.88;;;14.90;99.90;;;;;;5033850;28;20109;-59
2021/09/27 01:07:50;;;;;;;26.67;19.33;;;14.90;99.90;;;;;;5038494;28;20025;-58
2021/09/27 01:10:28;;;;;;;28.25;18.13;;;14.90;99.90;;;;;;5037214;28;20025;-58
2021/09/27 01:12:58;;;;;;;32.40;17.48;;;14.90;99.90;;;;;;5038765;28;20102;-58
2021/09/27 01:15:43;;;;;;;30.80;17.92;;;15.00;99.90;;;;;;5046126;28;20021;-60
2021/09/27 01:18:41;;;;;;;31.42;18.70;;;15.00;99.90;;;;;;5040487;28;20489;-57
2021/09/27 01:21:11;;;;;;;31.42;17.20;;;14.90;99.90;;;;;;5000212;28;20044;-57
2021/09/27 01:24:03;;;;;;;27.33;17.60;;;14.90;99.90;;;;;;5042555;28;20060;-56
2021/09/27 01:27:00;;;;;;;33.10;18.05;;;14.90;99.90;;;;;;5042915;28;20029;-56
2021/09/27 01:29:59;;;;;;;29.67;18.30;;;14.90;99.90;;;;;;5045880;28;20361;-54
2021/09/27 01:32:45;;;;;;;27.95;17.67;;;14.90;99.90;;;;;;5041183;28;20087;-57
2021/09/27 01:35:21;;;;;;;33.08;18.20;;;14.90;99.90;;;;;;5041227;28;20024;-57
2021/09/27 01:37:50;;;;;;;30.08;18.38;;;14.90;99.90;;;;;;5043338;28;20036;-56
2021/09/27 01:40:41;;;;;;;25.50;17.58;;;14.90;99.90;;;;;;5044148;28;20025;-56
2021/09/27 01:43:12;;;;;;;29.42;17.90;;;15.00;99.90;;;;;;5041616;28;20052;-57
2021/09/27 01:45:59;;;;;;;29.30;17.45;;;15.00;99.90;;;;;;5037749;28;20026;-58
2021/09/27 01:48:47;;;;;;;31.52;18.38;;;15.00;99.90;;;;;;5037469;28;20030;-60
2021/09/27 01:51:33;;;;;;;29.10;17.80;;;15.00;99.90;;;;;;5048112;28;20497;-57
2021/09/27 01:54:19;;;;;;;28.20;17.45;;;15.00;99.90;;;;;;5039641;28;20033;-57
2021/09/27 01:56:55;;;;;;;23.15;17.23;;;15.00;99.90;;;;;;5037069;28;20061;-58
2021/09/27 01:59:28;;;;;;;27.83;16.73;;;15.00;99.90;;;;;;5039801;28;20021;-56
2021/09/27 02:02:05;;;;;;;22.77;15.65;;;15.10;99.90;;;;;;5046454;28;20112;-58
2021/09/27 02:04:45;;;;;;;28.88;15.90;;;15.10;99.90;;;;;;5037125;28;20440;-59
2021/09/27 02:07:14;;;;;;;24.73;17.42;;;15.10;99.90;;;;;;5043827;28;20035;-56
2021/09/27 02:09:52;;;;;;;26.95;17.75;;;15.10;99.90;;;;;;5036283;28;20029;-57
2021/09/27 02:12:24;;;;;;;27.65;17.15;;;15.10;99.90;;;;;;5035317;28;20047;-57
2021/09/27 02:15:15;;;;;;;29.35;18.88;;;15.00;99.90;;;;;;5042978;28;20512;-56
2021/09/27 02:17:48;;;;;;;29.88;17.52;;;15.00;99.90;;;;;;5037975;28;20818;-55
2021/09/27 02:20:22;;;;;;;25.92;16.95;;;15.00;99.90;;;;;;5045242;28;20047;-56
2021/09/27 02:23:01;;;;;;;;;;;15.00;99.90;;;;;;5045447;28;20028;-57
2021/09/27 02:25:33;;;;;;;28.65;18.42;;;15.00;99.90;;;;;;5041018;28;19986;-55
2021/09/27 02:28:03;;;;;;;26.80;16.30;;;15.00;99.90;;;;;;5039895;28;20037;-56
2021/09/27 02:30:58;;;;;;;26.50;16.88;;;15.00;99.90;;;;;;5058878;22;20440;-58
2021/09/27 02:33:50;;;;;;;29.70;17.70;;;15.10;99.90;;;;;;5049880;28;20017;-58
2021/09/27 02:36:24;;;;;;;28.23;16.58;;;15.00;99.90;;;;;;5047440;28;20382;-56
2021/09/27 02:38:59;;;;;;;24.20;17.02;;;15.10;99.90;;;;;;5051458;28;20104;-59
2021/09/27 02:41:39;;;;;;;27.20;16.48;;;15.10;99.90;;;;;;5052302;28;20064;-58
2021/09/27 02:44:05;;;;;;;27.15;17.00;;;15.10;99.90;;;;;;5052088;28;20481;-60
2021/09/27 02:46:32;;;;;;;29.48;17.23;;;15.10;99.90;;;;;;5047143;28;20070;-58
2021/09/27 02:49:11;;;;;;;26.30;16.20;;;15.10;99.90;;;;;;5052206;28;20025;-58
2021/09/27 02:51:39;;;;;;;31.02;17.45;;;15.10;99.90;;;;;;5051886;28;20063;-60
2021/09/27 02:54:05;;;;;;;29.90;18.77;;;15.10;99.90;;;;;;5052532;28;20433;-59
2021/09/27 02:56:42;;;;;;;32.75;19.55;;;15.10;99.90;;;;;;5049467;28;20055;-59
2021/09/27 02:59:36;;;;;;;40.92;20.23;;;15.00;99.90;;;;;;5050824;28;20036;-58
2021/09/27 03:02:05;;;;;;;29.20;17.25;;;14.90;99.90;;;;;;5047467;28;20025;-59
2021/09/27 03:05:04;;;;;;;24.92;17.45;;;15.00;99.90;;;;;;5051141;28;20048;-60
2021/09/27 03:07:59;;;;;;;29.67;16.90;;;14.90;99.90;;;;;;5050506;28;20021;-60
2021/09/27 03:10:52;;;;;;;28.60;18.05;;;14.90;99.90;;;;;;5052096;28;20166;-59
2021/09/27 03:13:21;;;;;;;33.55;19.45;;;15.00;99.90;;;;;;5050288;28;20040;-59
2021/09/27 03:16:08;;;;;;;32.83;17.55;;;14.90;99.90;;;;;;5050314;28;20049;-58
2021/09/27 03:19:00;;;;;;;28.10;19.10;;;14.80;99.90;;;;;;5050522;28;20385;-60
2021/09/27 03:22:20;;;;;;;35.30;21.73;;;14.70;99.90;;;;;;5051111;28;20025;-60
2021/09/27 03:25:26;;;;;;;31.83;19.08;;;14.70;99.90;;;;;;5015311;28;20567;-57
2021/09/27 03:28:16;;;;;;;26.88;17.13;;;14.70;99.90;;;;;;5051785;28;20095;-56
2021/09/27 03:31:12;;;;;;;37.22;21.17;;;14.60;99.90;;;;;;5050974;28;20048;-59
2021/09/27 03:33:57;;;;;;;29.75;19.80;;;14.60;99.90;;;;;;5047483;28;20033;-59
2021/09/27 03:36:47;;;;;;;31.17;17.70;;;14.60;99.90;;;;;;5050210;28;20032;-58
2021/09/27 03:39:36;;;;;;;35.63;21.60;;;14.60;99.90;;;;;;5049749;28;20029;-59
2021/09/27 03:42:07;;;;;;;31.25;18.95;;;14.60;99.90;;;;;;5051237;28;20025;-60
2021/09/27 03:44:55;;;;;;;37.53;20.15;;;14.50;99.90;;;;;;5048407;28;20079;-59
2021/09/27 03:47:59;;;;;;;33.63;19.85;;;14.50;99.90;;;;;;5050379;28;20049;-57
2021/09/27 03:50:31;;;;;;;34.28;20.08;;;14.50;99.90;;;;;;4987514;28;20102;-59
2021/09/27 03:53:04;;;;;;;33.88;19.88;;;14.50;99.90;;;;;;5047587;28;20036;-59
2021/09/27 03:55:30;;;;;;;31.55;20.15;;;14.50;99.90;;;;;;5050824;28;20083;-57
2021/09/27 03:58:10;;;;;;;30.05;19.70;;;14.50;99.90;;;;;;5050198;28;20021;-58
2021/09/27 04:00:44;;;;;;;33.45;20.05;;;14.50;99.90;;;;;;5049239;28;20053;-58
2021/09/27 04:03:32;;;;;;;33.50;18.52;;;14.50;99.90;;;;;;5050100;28;20025;-58
2021/09/27 04:06:14;;;;;;;36.15;19.73;;;14.50;99.90;;;;;;5051370;28;20399;-59
2021/09/27 04:09:01;;;;;;;31.23;19.33;;;14.40;99.90;;;;;;5050285;28;20037;-59
2021/09/27 04:11:43;;;;;;;28.08;18.80;;;14.40;99.90;;;;;;5046033;28;20033;-58
2021/09/27 04:14:44;;;;;;;28.20;18.25;;;14.50;99.90;;;;;;5050401;28;20025;-60
2021/09/27 04:17:47;;;;;;;29.35;18.23;;;14.50;99.90;;;;;;5045585;28;20115;-59
2021/09/27 04:20:24;;;;;;;28.48;17.92;;;14.50;99.90;;;;;;5040919;28;20080;-57
2021/09/27 04:23:16;;;;;;;32.42;19.17;;;14.50;99.90;;;;;;5048281;28;20035;-59
2021/09/27 04:25:52;;;;;;;31.13;19.98;;;14.60;99.90;;;;;;5047676;28;20029;-56
2021/09/27 04:28:36;;;;;;;33.72;19.08;;;14.60;99.90;;;;;;5049281;28;20037;-58
2021/09/27 04:31:07;;;;;;;29.45;18.60;;;14.60;99.90;;;;;;5046937;28;20262;-57
2021/09/27 04:33:57;;;;;;;29.17;18.50;;;14.60;99.90;;;;;;5049582;28;20072;-59
2021/09/27 04:36:25;;;;;;;35.33;18.92;;;14.60;99.90;;;;;;5050340;28;20040;-59
2021/09/27 04:38:55;;;;;;;33.42;19.25;;;14.70;99.90;;;;;;5048729;28;20032;-60
2021/09/27 04:41:39;;;;;;;36.08;20.92;;;14.70;99.90;;;;;;5050312;28;20021;-59
2021/09/27 04:44:05;;;;;;;31.00;18.95;;;14.70;99.90;;;;;;5049976;28;20112;-58
2021/09/27 04:46:35;;;;;;;31.15;19.38;;;14.80;99.90;;;;;;5050454;28;20105;-58
2021/09/27 04:49:50;;;;;;;40.05;20.73;;;14.80;99.90;;;;;;5049013;28;20434;-57
2021/09/27 04:52:31;;;;;;;30.27;18.75;;;14.80;99.90;;;;;;5042092;28;20591;-60
2021/09/27 04:55:17;;;;;;;30.40;19.95;;;14.90;99.90;;;;;;5044645;28;20060;-59
2021/09/27 04:58:11;;;;;;;31.33;17.98;;;14.90;99.90;;;;;;5048138;28;20028;-58
2021/09/27 05:00:47;;;;;;;32.28;18.58;;;14.90;99.90;;;;;;5047862;28;20041;-58
2021/09/27 05:03:20;;;;;;;33.05;19.35;;;15.00;99.90;;;;;;5047324;28;20059;-59
2021/09/27 05:06:05;;;;;;;30.83;18.48;;;15.00;99.90;;;;;;5026739;28;20672;-60
2021/09/27 05:09:09;;;;;;;34.42;18.15;;;15.10;99.90;;;;;;5048658;28;20028;-60
2021/09/27 05:11:53;;;;;;;33.33;19.15;;;15.10;99.90;;;;;;5048511;28;20033;-59
2021/09/27 05:14:38;;;;;;;27.05;18.80;;;15.20;99.90;;;;;;5047344;28;20043;-59
2021/09/27 05:17:46;;;;;;;36.53;17.58;;;15.20;99.90;;;;;;5048634;28;20036;-58
2021/09/27 05:20:32;;;;;;;35.85;18.10;;;15.20;99.90;;;;;;5043532;28;20032;-64
2021/09/27 05:23:13;;;;;;;28.38;17.48;;;15.20;99.90;;;;;;5046110;28;20373;-62
2021/09/27 05:25:56;;;;;;;31.25;19.15;;;15.20;99.90;;;;;;5046044;28;20025;-63
2021/09/27 05:28:38;;;;;;;32.88;18.08;;;15.20;99.90;;;;;;5049493;28;20029;-63
2021/09/27 05:31:06;;;;;;;27.65;17.85;;;15.20;99.90;;;;;;5044972;28;20047;-63
2021/09/27 05:33:44;;;;;;;29.73;17.55;;;15.10;99.90;;;;;;5046761;28;20433;-62
2021/09/27 05:36:25;;;;;;;32.38;18.95;;;15.10;99.90;;;;;;5043568;28;20047;-63
2021/09/27 05:39:05;;;;;;;29.65;18.13;;;15.10;99.90;;;;;;5048351;28;20028;-62
2021/09/27 05:42:09;;;;;;;29.48;17.95;;;15.10;99.90;;;;;;5049251;28;20025;-64
2021/09/27 05:45:15;;;;;;;27.27;17.20;;;15.10;99.90;;;;;;5002264;28;20083;-63
2021/09/27 05:47:49;;;;;;;32.30;18.55;;;15.10;99.90;;;;;;4986636;28;20509;-63
2021/09/27 05:50:40;;;;;;;37.13;20.17;;;15.10;99.90;;;;;;5041768;28;20420;-63
2021/09/27 05:53:17;;;;;;;33.92;20.23;;;15.10;99.90;;;;;;5046217;28;20399;-63
2021/09/27 05:55:54;;;;;;;32.08;19.35;;;15.00;99.90;;;;;;5048755;28;20025;-60
2021/09/27 05:58:32;;;;;;;35.38;19.52;;;15.00;99.90;;;;;;5049241;28;20044;-62
2021/09/27 06:01:07;;;;;;;27.52;18.33;;;15.00;99.90;;;;;;5048538;28;20025;-63
2021/09/27 06:03:42;;;;;;;28.80;19.10;;;15.00;99.90;;;;;;5042572;28;20099;-60
2021/09/27 06:06:21;;;;;;;33.25;18.70;;;15.00;99.90;;;;;;5048680;28;22018;-64
2021/09/27 06:08:55;;;;;;;30.33;18.13;;;15.00;99.90;;;;;;5047255;28;20033;-61
2021/09/27 06:11:44;;;;;;;29.70;19.08;;;15.10;99.90;;;;;;5045239;28;20385;-61
2021/09/27 06:14:14;;;;;;;29.38;18.80;;;15.10;99.90;;;;;;5048712;28;20094;-63
2021/09/27 06:17:02;;;;;;;32.60;19.52;;;15.10;99.90;;;;;;5049220;28;20026;-62
2021/09/27 06:19:45;;;;;;;27.95;19.02;;;15.20;99.90;;;;;;5043116;28;20054;-62
2021/09/27 06:22:22;;;;;;;27.73;17.83;;;15.20;99.90;;;;;;5048909;28;20071;-64
2021/09/27 06:25:15;;;;;;;28.85;16.73;;;15.30;99.90;;;;;;5049809;28;20033;-61
2021/09/27 06:27:58;;;;;;;35.97;20.30;;;15.30;99.90;;;;;;5048966;28;20032;-63
2021/09/27 06:31:00;;;;;;;31.92;19.00;;;15.40;99.90;;;;;;5047971;28;20491;-62
2021/09/27 06:33:36;;;;;;;30.55;18.48;;;15.40;99.90;;;;;;5049300;28;20031;-63
2021/09/27 06:36:15;;;;;;;30.75;18.83;;;15.50;99.90;;;;;;5051644;28;20499;-63
2021/09/27 06:38:41;;;;;;;31.73;19.33;;;15.50;99.90;;;;;;5051520;28;20032;-61
2021/09/27 06:41:14;;;;;;;26.60;19.05;;;15.50;99.90;;;;;;5052586;28;20033;-62
2021/09/27 06:43:40;;;;;;;36.58;19.52;;;15.60;99.90;;;;;;5052531;28;20029;-63
2021/09/27 06:46:05;;;;;;;33.30;18.95;;;15.60;99.90;;;;;;5052675;28;20025;-61
2021/09/27 06:48:31;;;;;;;29.42;19.45;;;15.70;99.90;;;;;;5051631;28;20204;-61
2021/09/27 06:50:57;;;;;;;26.48;17.40;;;15.70;99.90;;;;;;5052217;28;20032;-62
2021/09/27 06:53:24;;;;;;;24.33;17.77;;;15.70;99.90;;;;;;5052253;28;20054;-62
2021/09/27 06:55:50;;;;;;;29.05;17.80;;;15.70;99.90;;;;;;5034422;28;20035;-63
2021/09/27 06:58:16;;;;;;;31.33;18.25;;;15.70;99.90;;;;;;5052352;28;20037;-62
2021/09/27 07:00:41;;;;;;;26.83;16.83;;;15.80;99.90;;;;;;5050034;28;20040;-63
2021/09/27 07:03:07;;;;;;;29.02;19.38;;;15.70;99.90;;;;;;5052522;28;20025;-63
2021/09/27 07:05:33;;;;;;;25.55;17.15;;;15.80;99.90;;;;;;5052124;28;20025;-62
2021/09/27 07:08:00;;;;;;;30.00;17.35;;;15.80;99.90;;;;;;5051197;28;20515;-62
2021/09/27 07:10:26;;;;;;;28.23;17.67;;;15.90;99.90;;;;;;5050893;28;20105;-63
2021/09/27 07:12:52;;;;;;;28.70;17.33;;;16.00;99.90;;;;;;5051682;28;20116;-61
2021/09/27 07:15:19;;;;;;;29.02;17.30;;;16.10;99.90;;;;;;5051781;28;20036;-62
2021/09/27 07:17:44;;;;;;;23.92;16.13;;;16.20;99.90;;;;;;5051698;28;20091;-61
2021/09/27 07:20:17;;;;;;;24.33;15.70;;;16.30;99.90;;;;;;5050595;28;20485;-62
2021/09/27 07:22:43;;;;;;;24.95;15.77;;;16.50;99.90;;;;;;5052027;28;20110;-61
2021/09/27 07:25:10;;;;;;;27.48;17.15;;;16.60;99.90;;;;;;5051793;28;20483;-62
2021/09/27 07:27:36;;;;;;;25.95;16.15;;;16.70;99.90;;;;;;5033566;28;20029;-61
2021/09/27 07:30:04;;;;;;;23.55;15.05;;;16.70;99.90;;;;;;5050116;28;20033;-63
2021/09/27 07:32:30;;;;;;;25.65;15.20;;;16.80;99.90;;;;;;5052008;28;20029;-63
2021/09/27 07:34:55;;;;;;;23.00;14.82;;;16.90;99.90;;;;;;5051955;28;20083;-62
2021/09/27 07:37:21;;;;;;;22.80;15.82;;;16.90;99.90;;;;;;5051762;28;20025;-61
2021/09/27 07:39:47;;;;;;;24.42;14.13;;;17.00;99.90;;;;;;5049487;28;20029;-62
2021/09/27 07:42:12;;;;;;;20.20;13.57;;;17.10;99.90;;;;;;5051473;28;20426;-61
2021/09/27 07:44:38;;;;;;;23.88;14.43;;;17.20;99.90;;;;;;5050934;28;20025;-60
2021/09/27 07:47:04;;;;;;;29.30;15.13;;;17.30;99.90;;;;;;5051678;28;20017;-62
2021/09/27 07:49:30;;;;;;;24.58;13.80;;;17.50;99.90;;;;;;5049974;28;20725;-64
2021/09/27 07:51:57;;;;;;;21.40;12.77;;;17.70;99.90;;;;;;5051361;28;20028;-63
2021/09/27 07:54:24;;;;;;;19.55;12.30;;;17.90;99.90;;;;;;5051160;28;20021;-62
2021/09/27 07:56:50;;;;;;;18.77;13.63;;;18.10;99.90;;;;;;5033663;28;20029;-62
2021/09/27 07:59:16;;;;;;;22.30;11.75;;;18.30;99.90;;;;;;5049862;28;20103;-63
2021/09/27 08:01:41;;;;;;;17.25;12.32;;;18.40;99.90;;;;;;5050354;28;20548;-64
2021/09/27 08:04:09;;;;;;;21.02;11.82;;;18.50;99.90;;;;;;5050996;28;20024;-63
2021/09/27 08:06:35;;;;;;;16.10;9.70;;;18.50;99.90;;;;;;5051256;28;20021;-62
2021/09/27 08:09:01;;;;;;;17.45;10.32;;;18.50;99.90;;;;;;5049530;28;20086;-62
2021/09/27 08:11:27;;;;;;;17.35;11.10;;;18.50;99.90;;;;;;5050592;28;20040;-62
2021/09/27 08:13:52;;;;;;;12.27;9.20;;;18.50;99.90;;;;;;5050586;28;20037;-61
2021/09/27 08:16:18;;;;;;;13.35;9.38;;;18.50;99.90;;;;;;5050819;28;20063;-62
2021/09/27 08:18:44;;;;;;;1950.75;281.15;;;18.60;99.90;;;;;;5049882;28;20140;-64
2021/09/27 08:21:13;;;;;;;59.10;15.57;;;18.60;99.90;;;;;;5052205;28;20029;-63
2021/09/27 08:23:39;;;;;;;132.57;20.05;;;18.60;99.90;;;;;;5050807;28;20025;-63
2021/09/27 08:26:05;;;;;;;14.70;8.90;;;18.60;99.90;;;;;;5050133;28;20373;-64
2021/09/27 08:28:31;;;;;;;12.88;8.73;;;18.60;99.90;;;;;;5049437;28;20037;-64
2021/09/27 08:31:04;;;;;;;14.27;8.57;;;18.60;99.90;;;;;;5076591;22;20032;-58
2021/09/27 08:33:31;;;;;;;13.90;8.95;;;18.60;99.90;;;;;;5044738;28;20156;-58
2021/09/27 08:35:58;;;;;;;17.05;8.40;;;18.60;99.90;;;;;;5031819;28;20124;-57
2021/09/27 08:38:25;;;;;;;772.03;111.95;;;18.70;99.90;;;;;;5036887;28;20041;-58
2021/09/27 08:41:02;;;;;;;18.98;8.27;;;18.80;99.90;;;;;;5034820;28;20025;-58
2021/09/27 08:43:49;;;;;;;11.13;8.02;;;18.80;99.90;;;;;;5049497;28;20067;-60
2021/09/27 08:46:26;;;;;;;15.75;7.95;;;18.90;99.90;;;;;;5031825;28;20021;-59
2021/09/27 08:49:13;;;;;;;13.02;6.93;;;19.00;99.90;;;;;;5031507;28;20043;-58
2021/09/27 08:51:39;;;;;;;12.10;7.82;;;19.10;99.90;;;;;;5019156;28;20808;-55
2021/09/27 08:54:14;;;;;;;11.30;7.70;;;19.20;99.90;;;;;;5050172;28;20042;-61
2021/09/27 08:56:53;;;;;;;10.93;6.72;;;19.40;99.90;;;;;;5021229;28;20025;-59
2021/09/27 08:59:28;;;;;;;11.48;7.25;;;19.50;99.90;;;;;;5038257;28;20104;-60
2021/09/27 09:02:41;;;;;;;9.50;6.85;;;19.60;99.90;;;;;;5042632;28;20099;-59
2021/09/27 09:05:13;;;;;;;10.48;7.20;;;19.70;99.90;;;;;;5011402;28;20385;-59
2021/09/27 09:08:06;;;;;;;9.00;7.00;;;19.80;99.90;;;;;;5035903;28;20171;-61
2021/09/27 09:10:51;;;;;;;14.30;6.70;;;19.90;99.90;;;;;;5017314;28;20033;-59
2021/09/27 09:13:24;;;;;;;12.38;6.57;;;20.00;99.90;;;;;;5030904;28;20033;-60
2021/09/27 09:15:58;;;;;;;10.13;6.22;;;20.10;99.90;;;;;;5047756;28;20051;-59
2021/09/27 09:18:30;;;;;;;12.00;6.10;;;20.20;99.90;;;;;;5049634;28;20028;-60
2021/09/27 09:21:04;;;;;;;14.35;6.80;;;20.20;99.90;;;;;;5046460;28;20041;-61
2021/09/27 09:23:37;;;;;;;13.63;5.80;;;20.30;99.90;;;;;;5048762;28;20044;-59
2021/09/27 09:26:09;;;;;;;12.13;6.10;;;20.30;99.90;;;;;;5043816;28;20033;-61
2021/09/27 09:28:35;;;;;;;9.43;5.68;;;20.30;99.90;;;;;;5044472;28;20025;-60
2021/09/27 09:31:12;;;;;;;10.18;5.50;;;20.30;99.90;;;;;;5040114;28;20047;-58
2021/09/27 09:33:48;;;;;;;7.65;5.65;;;20.40;99.90;;;;;;5037541;28;20061;-60
2021/09/27 09:36:39;;;;;;;7.75;5.10;;;20.50;99.90;;;;;;5036852;28;20029;-60
2021/09/27 09:39:33;;;;;;;8.32;5.07;;;20.60;99.90;;;;;;5031017;28;20032;-57
2021/09/27 09:42:23;;;;;;;7.43;4.68;;;20.60;99.90;;;;;;5038182;28;20065;-58
2021/09/27 09:44:51;;;;;;;7.50;4.65;;;20.90;99.90;;;;;;5031440;28;20459;-60
2021/09/27 09:47:19;;;;;;;4.65;3.92;;;21.00;99.90;;;;;;5035340;28;20511;-61
2021/09/27 09:50:03;;;;;;;4.93;3.72;;;21.20;99.90;;;;;;5041719;28;20033;-60
2021/09/27 09:52:44;;;;;;;9.40;3.40;;;21.30;99.90;;;;;;5036230;28;20029;-61
2021/09/27 09:55:18;;;;;;;6.28;3.42;;;21.50;99.90;;;;;;5042615;28;20063;-58
2021/09/27 09:58:13;;;;;;;4.82;2.90;;;21.70;99.90;;;;;;5035670;28;20032;-62
2021/09/27 10:00:52;;;;;;;5.28;3.10;;;21.90;99.90;;;;;;4997739;28;20041;-57
2021/09/27 10:03:26;;;;;;;6.05;3.38;;;22.00;99.90;;;;;;5038602;28;20045;-60
2021/09/27 10:06:17;;;;;;;8.27;3.17;;;21.90;99.90;;;;;;5033084;28;20037;-60
2021/09/27 10:08:53;;;;;;;12.38;3.30;;;21.90;99.90;;;;;;5041178;28;20048;-60
2021/09/27 10:11:42;;;;;;;8.63;3.55;;;21.90;99.90;;;;;;5039760;28;20017;-61
2021/09/27 10:14:37;;;;;;;9.38;2.90;;;21.70;99.90;;;;;;5036487;28;20033;-61
2021/09/27 10:17:21;;;;;;;;;;;21.50;99.90;;;;;;5029400;28;20515;-59
2021/09/27 10:19:55;;;;;;;9.23;3.50;;;21.40;99.90;;;;;;5044813;28;20325;-60
2021/09/27 10:22:24;;;;;;;4.43;2.75;;;21.30;99.90;;;;;;5035681;28;20037;-60
2021/09/27 10:24:56;;;;;;;6.97;3.10;;;21.30;99.90;;;;;;5050470;28;20028;-58
2021/09/27 10:27:31;;;;;;;11.38;3.33;;;21.20;99.90;;;;;;5050909;28;20485;-59
2021/09/27 10:30:01;;;;;;;3.10;2.65;;;21.30;99.90;;;;;;5049292;28;20024;-57
2021/09/27 10:32:40;;;;;;;7.43;2.92;;;21.20;99.90;;;;;;5053349;28;20036;-60
2021/09/27 10:35:29;;;;;;;6.35;3.58;;;21.20;99.90;;;;;;5054243;28;20021;-59
2021/09/27 10:38:12;;;;;;;4.55;2.58;;;21.30;99.90;;;;;;5046268;28;20507;-61
2021/09/27 10:40:40;;;;;;;6.72;3.15;;;21.30;99.90;;;;;;5053455;28;20087;-60
2021/09/27 10:43:13;;;;;;;7.03;3.25;;;21.30;99.90;;;;;;5053332;28;20112;-59
2021/09/27 10:45:42;;;;;;;6.78;3.63;;;21.40;99.90;;;;;;5034445;28;20083;-60
2021/09/27 10:48:08;;;;;;;9.30;3.00;;;21.40;99.90;;;;;;5033788;28;20026;-60
2021/09/27 10:50:45;;;;;;;7.28;2.67;;;21.50;99.90;;;;;;5042070;28;20025;-59
2021/09/27 10:53:25;;;;;;;5.85;2.65;;;21.50;99.90;;;;;;5043946;28;20104;-62
2021/09/27 10:56:23;;;;;;;5.88;2.63;;;21.60;99.90;;;;;;5047288;28;20063;-59
2021/09/27 10:59:02;;;;;;;6.82;2.58;;;21.50;99.90;;;;;;5047227;28;20029;-59
2021/09/27 11:01:51;;;;;;;12.68;2.70;;;21.60;99.90;;;;;;5044601;28;20021;-61
2021/09/27 11:04:34;;;;;;;15.10;2.65;;;21.60;99.90;;;;;;5048465;28;20025;-60
2021/09/27 11:07:20;;;;;;;4.45;2.30;;;21.60;99.90;;;;;;5042117;28;20079;-60
2021/09/27 11:09:46;;;;;;;6.15;2.97;;;21.70;99.90;;;;;;5044632;28;20463;-59
2021/09/27 11:12:23;;;;;;;6.85;2.63;;;21.90;99.90;;;;;;5042607;28;20385;-59
2021/09/27 11:14:58;;;;;;;4.72;2.58;;;22.00;99.90;;;;;;5044083;28;20017;-60
2021/09/27 11:18:13;;;;;;;3.33;2.17;;;22.20;99.90;;;;;;5042421;28;20104;-60
2021/09/27 11:21:14;;;;;;;10.07;2.50;;;22.30;99.90;;;;;;5022012;28;20083;-59
2021/09/27 11:23:40;;;;;;;6.00;2.22;;;22.50;99.90;;;;;;5041867;28;20082;-59
2021/09/27 11:26:20;;;;;;;5.25;2.50;;;22.40;99.90;;;;;;5041433;28;20037;-59
2021/09/27 11:28:54;;;;;;;6.28;2.40;;;22.40;99.90;;;;;;5043396;28;20112;-61
2021/09/27 11:31:25;;;;;;;3.45;2.45;;;22.20;99.90;;;;;;5041367;28;20086;-57
2021/09/27 11:34:30;;;;;;;6.90;2.35;;;22.10;99.90;;;;;;5043394;28;20040;-58
2021/09/27 11:37:23;;;;;;;6.32;2.30;;;22.10;99.90;;;;;;5013401;28;20164;-62
2021/09/27 11:40:00;;;;;;;6.47;2.35;;;22.00;99.90;;;;;;5042221;28;20033;-58
2021/09/27 11:42:33;;;;;;;3.67;2.20;;;22.00;99.90;;;;;;5042276;28;20387;-60
2021/09/27 11:44:58;;;;;;;2.78;2.30;;;22.00;99.90;;;;;;5042297;28;20048;-60
2021/09/27 11:47:42;;;;;;;3.08;1.92;;;22.10;99.90;;;;;;5043914;28;20059;-61
2021/09/27 11:50:34;;;;;;;14.73;2.50;;;22.10;99.90;;;;;;5041424;28;20028;-62
2021/09/27 11:53:24;;;;;;;4.97;2.30;;;22.10;99.90;;;;;;4981982;28;20037;-60
2021/09/27 11:56:10;;;;;;;2.53;1.98;;;22.10;99.90;;;;;;5037696;28;20112;-56
2021/09/27 11:59:04;;;;;;;3.80;2.42;;;22.00;99.90;;;;;;5040792;28;20037;-57
2021/09/27 12:01:36;;;;;;;4.72;2.67;;;22.00;99.90;;;;;;5042538;28;20021;-58
2021/09/27 12:04:41;;;;;;;4.68;2.58;;;22.30;99.90;;;;;;5040821;28;20017;-57
2021/09/27 12:07:12;;;;;;;6.17;3.20;;;22.50;99.90;;;;;;5043877;28;20306;-58
2021/09/27 12:09:51;;;;;;;3.17;2.40;;;22.60;99.90;;;;;;5040167;28;20026;-59
2021/09/27 12:12:25;;;;;;;5.38;2.58;;;22.60;99.90;;;;;;5041640;28;20036;-61
2021/09/27 12:14:51;;;;;;;3.25;2.53;;;22.60;99.90;;;;;;5041839;28;20028;-59
2021/09/27 12:17:23;;;;;;;4.95;2.53;;;22.60;99.90;;;;;;5043615;28;20086;-59
2021/09/27 12:19:59;;;;;;;7.55;2.55;;;22.70;99.90;;;;;;5040456;28;20691;-61
2021/09/27 12:22:50;;;;;;;8.18;2.65;;;22.60;99.90;;;;;;5017413;28;20025;-61
2021/09/27 12:25:21;;;;;;;4.53;2.33;;;22.50;99.90;;;;;;5042199;28;20384;-62
2021/09/27 12:28:05;;;;;;;6.07;2.95;;;22.40;99.90;;;;;;5044880;28;20120;-59
2021/09/27 12:30:33;;;;;;;3.88;2.42;;;22.30;99.90;;;;;;5042026;28;20025;-61
2021/09/27 12:33:14;;;;;;;8.85;2.45;;;22.10;99.90;;;;;;5039266;28;20032;-61
2021/09/27 12:35:43;;;;;;;2.97;2.42;;;22.00;99.90;;;;;;5031756;28;20176;-61
2021/09/27 12:38:09;;;;;;;3.55;2.17;;;22.10;99.90;;;;;;5035013;28;20052;-61
2021/09/27 12:40:38;;;;;;;4.50;2.35;;;22.20;99.90;;;;;;5041158;28;20481;-62
2021/09/27 12:43:17;;;;;;;3.55;2.33;;;22.30;99.90;;;;;;5042041;28;20587;-59
2021/09/27 12:45:46;;;;;;;4.93;2.30;;;22.60;99.90;;;;;;5032374;28;20116;-62
2021/09/27 12:48:21;;;;;;;3.65;2.30;;;22.80;99.90;;;;;;5045258;28;20032;-60
2021/09/27 12:51:14;;;;;;;3.88;2.70;;;22.90;99.90;;;;;;5034682;28;20412;-61
2021/09/27 12:53:49;;;;;;;8.63;2.85;;;22.80;99.90;;;;;;5030189;28;20045;-59
2021/09/27 12:56:16;;;;;;;3.35;2.70;;;22.60;99.90;;;;;;5034754;28;20029;-59
2021/09/27 12:58:53;;;;;;;4.50;2.95;;;22.40;99.90;;;;;;5040285;28;20076;-60
2021/09/27 13:01:23;;;;;;;7.82;2.78;;;22.40;99.90;;;;;;5034499;28;20045;-62
2021/09/27 13:04:03;;;;;;;9.63;2.55;;;22.40;99.90;;;;;;5041414;28;20104;-60
2021/09/27 13:06:46;;;;;;;2.90;1.88;;;22.30;99.90;;;;;;5043252;28;20410;-59
2021/09/27 13:09:23;;;;;;;8.05;2.63;;;22.30;99.90;;;;;;5040742;28;20452;-61
2021/09/27 13:12:07;;;;;;;4.88;2.67;;;22.20;99.90;;;;;;5031691;28;20029;-61
2021/09/27 13:14:35;;;;;;;7.60;2.85;;;22.30;99.90;;;;;;5042162;28;20069;-60
2021/09/27 13:17:19;;;;;;;4.53;2.80;;;22.20;99.90;;;;;;5037945;28;20041;-60
2021/09/27 13:19:51;;;;;;;7.35;2.70;;;22.10;99.90;;;;;;5041372;28;20110;-60
2021/09/27 13:22:38;;;;;;;7.93;2.97;;;22.10;99.90;;;;;;5039038;28;20065;-60
2021/09/27 13:25:14;;;;;;;7.05;3.28;;;22.00;99.90;;;;;;5039254;28;20060;-59